Time;durP1;ratioP1;P1;durP2;ratioP2;P2;SDS_P1;SDS_P2;PMS_P1;PMS_P2;Temp;Humidity;BMP_temperature;BMP_pressure;BME280_temperature;BME280_humidity;BME280_pressure;Samples;Min_cycle;Max_cycle;Signal;HPM_P1;HPM_P2
2022/08/12 06:30:28;;;;;;;;;;;;;;;26.46;49.61;100654.03;6023673;23;19932;-82
2022/08/12 06:33:13;;;;;;;;;;;;;;;26.51;50.30;100661.09;4982933;28;20478;-82
2022/08/12 06:35:59;;;;;;;;;;;;;;;26.51;48.83;100655.53;4991970;28;19918;-79
2022/08/12 06:38:44;;;;;;;;;;;;;;;26.53;49.60;100653.88;4963155;28;19914;-85
2022/08/12 06:44:32;;;;;;;;;;;;;;;26.51;48.12;100661.09;5008751;23;19921;-57
2022/08/12 06:47:18;;;;;;;;;;;;;;;26.53;48.25;100669.81;5000714;28;19918;-57
2022/08/12 06:50:03;;;;;;;;;;;;;;;26.54;48.42;100672.19;4998616;28;19914;-57
2022/08/12 06:52:49;;;;;;;;;;;;;;;26.52;47.78;100673.81;4984116;28;19914;-57
2022/08/12 06:55:35;;;;;;;;;;;;;;;26.50;47.33;100673.47;4976889;28;19919;-57
2022/08/12 06:58:20;;;;;;;;;;;;;;;26.47;46.27;100680.66;4974957;28;19914;-57
2022/08/12 07:01:05;;;;;;;;;;;;;;;26.39;45.68;100680.03;4977150;28;19914;-57
2022/08/12 07:03:52;;;;;;;;;;;;;;;26.41;46.90;100681.59;4989196;28;19917;-57
2022/08/12 07:06:36;;;;;;;;;;;;;;;26.43;46.79;100681.94;4969254;28;19915;-57
2022/08/12 07:09:21;;;;;;;;;;;;;;;26.42;46.43;100683.94;4954985;28;19914;-57
2022/08/12 07:12:18;;;;;;;;;;;;;;;26.41;45.97;100689.97;4954489;29;19914;-57
2022/08/12 07:15:02;;;;;;;;;;;;;;;26.45;47.02;100688.69;4978159;28;19917;-57
2022/08/12 07:17:47;;;;;;;;;;;;;;;26.46;45.15;100681.13;4977272;28;19914;-57
2022/08/12 07:20:34;;;;;;;;;;;;;;;26.46;46.04;100689.47;4974020;28;19914;-57
2022/08/12 07:23:18;;;;;;;;;;;;;;;26.46;45.38;100687.50;4973811;28;20388;-57
2022/08/12 07:26:05;;;;;;;;;;;;;;;26.48;46.05;100693.41;4984741;28;20521;-58
2022/08/12 07:28:49;;;;;;;;;;;;;;;26.51;45.56;100692.59;4974030;28;19914;-58
2022/08/12 07:31:36;;;;;;;;;;;;;;;26.50;45.57;100693.78;4973055;28;20274;-58
2022/08/12 07:34:22;;;;;;;;;;;;;;;26.54;45.18;100686.16;4965788;28;19913;-58
2022/08/12 07:37:06;;;;;;;;;;;;;;;26.52;44.59;100690.56;4963720;28;19914;-58
2022/08/12 07:39:51;;;;;;;;;;;;;;;26.53;43.93;100686.56;4959249;28;19914;-58
2022/08/12 07:42:36;;;;;;;;;;;;;;;26.59;45.03;100690.44;4953981;29;19914;-58
2022/08/12 07:45:21;;;;;;;;;;;;;;;26.58;44.16;100695.22;4954561;29;19918;-58
2022/08/12 07:48:05;;;;;;;;;;;;;;;26.61;43.02;100697.19;4953854;29;19914;-58
2022/08/12 07:50:51;;;;;;;;;;;;;;;26.58;42.73;100700.03;4953681;28;19915;-58
2022/08/12 07:53:36;;;;;;;;;;;;;;;26.59;43.03;100702.41;4955341;28;19915;-58
2022/08/12 07:56:21;;;;;;;;;;;;;;;26.56;41.80;100691.31;4964290;28;19919;-58
2022/08/12 07:59:07;;;;;;;;;;;;;;;26.60;43.10;100697.59;4963251;28;19914;-58
2022/08/12 08:01:52;;;;;;;;;;;;;;;26.56;41.39;100702.47;4970716;28;19913;-58
2022/08/12 08:04:55;;;;;;;;;;;;;;;26.66;43.99;100702.28;4966891;28;19914;-58
2022/08/12 08:07:41;;;;;;;;;;;;;;;26.61;40.03;100711.13;4953770;29;19914;-58
2022/08/12 08:10:26;;;;;;;;;;;;;;;26.62;41.91;100723.06;4953245;28;19914;-58
2022/08/12 08:13:11;;;;;;;;;;;;;;;26.67;42.53;100725.38;4953566;29;19922;-58
2022/08/12 08:15:55;;;;;;;;;;;;;;;26.70;42.44;100724.53;4972714;28;19917;-58
2022/08/12 08:18:40;;;;;;;;;;;;;;;26.68;41.52;100724.16;4988243;28;19918;-58
2022/08/12 08:21:34;;;;;;;;;;;;;;;26.74;42.71;100733.63;4991798;28;20316;-58
2022/08/12 08:24:19;;;;;;;;;;;;;;;26.81;43.25;100733.50;4956180;28;19914;-58
2022/08/12 08:27:03;;;;;;;;;;;;;;;26.83;42.85;100745.03;4953562;29;19914;-58
2022/08/12 08:29:48;;;;;;;;;;;;;;;26.87;42.80;100736.63;4953246;28;19914;-58
2022/08/12 08:32:32;;;;;;;;;;;;;;;26.85;40.45;100737.03;4953395;29;19914;-58
2022/08/12 08:35:18;;;;;;;;;;;;;;;26.81;40.27;100739.88;4952939;29;19919;-58
2022/08/12 08:38:11;;;;;;;;;;;;;;;26.86;42.06;100744.19;4960222;28;19914;-58
2022/08/12 08:43:59;;;;;;;;;;;;;;;26.85;39.25;100748.19;4969991;28;19914;-58
2022/08/12 08:46:44;;;;;;;;;;;;;;;26.89;41.25;100742.56;4972501;28;19914;-58
2022/08/12 08:49:29;;;;;;;;;;;;;;;26.82;38.40;100746.22;4972922;28;19914;-58
2022/08/12 08:52:13;;;;;;;;;;;;;;;26.88;40.59;100750.13;4972155;28;19926;-58
2022/08/12 08:54:58;;;;;;;;;;;;;;;26.87;39.89;100750.59;4957798;28;19937;-58
2022/08/12 08:57:44;;;;;;;;;;;;;;;26.95;42.30;100754.81;4953464;28;19914;-58
2022/08/12 09:00:29;;;;;;;;;;;;;;;26.91;38.71;100754.88;4979966;28;19914;-58
2022/08/12 09:03:14;;;;;;;;;;;;;;;26.92;40.58;100752.88;4964109;28;19915;-58
2022/08/12 09:06:00;;;;;;;;;;;;;;;26.95;40.96;100755.59;4961642;28;19914;-58
2022/08/12 09:08:45;;;;;;;;;;;;;;;26.98;40.81;100763.13;4958219;28;19913;-58
2022/08/12 09:14:32;;;;;;;;;;;;;;;26.98;40.45;100753.94;4972361;28;19914;-58
2022/08/12 09:17:21;;;;;;;;;;;;;;;26.96;39.64;100754.41;4972079;28;19918;-58
2022/08/12 09:20:06;;;;;;;;;;;;;;;27.03;40.38;100759.84;4978624;28;19914;-58
2022/08/12 09:22:50;;;;;;;;;;;;;;;27.02;39.80;100761.03;4986629;28;19914;-58
2022/08/12 09:25:34;;;;;;;;;;;;;;;27.03;38.93;100756.25;4968299;28;19914;-58
2022/08/12 09:28:23;;;;;;;;;;;;;;;27.05;39.11;100751.84;4952661;28;19914;-58
2022/08/12 09:31:08;;;;;;;;;;;;;;;27.05;38.91;100748.25;4952538;28;19914;-58
2022/08/12 09:33:53;;;;;;;;;;;;;;;27.00;39.40;100741.16;4952873;29;19915;-59
2022/08/12 09:36:37;;;;;;;;;;;;;;;27.08;40.17;100752.97;4952794;29;19918;-58
2022/08/12 09:39:22;;;;;;;;;;;;;;;27.09;40.58;100752.56;4955508;28;19915;-58
2022/08/12 09:45:22;;;;;;;;;;;;;;;27.08;39.76;100756.56;4984241;28;19914;-58
2022/08/12 09:48:07;;;;;;;;;;;;;;;27.11;40.64;100752.94;4956022;28;19914;-58
2022/08/12 09:50:52;;;;;;;;;;;;;;;27.10;39.17;100754.13;4955841;28;20298;-58
2022/08/12 09:53:37;;;;;;;;;;;;;;;27.10;39.37;100747.75;4956077;29;19914;-58
2022/08/12 09:56:22;;;;;;;;;;;;;;;27.11;39.82;100749.34;4956033;29;19918;-58
2022/08/12 09:59:08;;;;;;;;;;;;;;;27.14;41.20;100742.88;4956232;28;19914;-58
2022/08/12 10:01:54;;;;;;;;;;;;;;;27.12;38.25;100743.31;4959371;28;19918;-58
2022/08/12 10:04:42;;;;;;;;;;;;;;;27.14;39.76;100738.09;4978900;28;19915;-58
2022/08/12 10:07:29;;;;;;;;;;;;;;;27.19;39.71;100739.59;4955791;28;20313;-58
2022/08/12 10:10:13;;;;;;;;;;;;;;;27.17;39.11;100728.84;4955727;28;19914;-58
2022/08/12 10:16:02;;;;;;;;;;;;;;;27.33;38.91;100727.38;4963284;28;19918;-58
2022/08/12 10:18:47;;;;;;;;;;;;;;;27.35;38.03;100728.53;4974929;28;20381;-58
2022/08/12 10:21:35;;;;;;;;;;;;;;;27.37;37.97;100728.88;4970983;28;19918;-58
2022/08/12 10:24:22;;;;;;;;;;;;;;;27.36;37.43;100720.94;4978891;28;19914;-58
2022/08/12 10:30:10;;;;;;;;;;;;;;;27.41;38.01;100709.25;4955462;28;19914;-58
2022/08/12 10:32:57;;;;;;;;;;;;;;;27.44;38.16;100714.75;4955537;29;20289;-59
2022/08/12 10:35:42;;;;;;;;;;;;;;;27.44;36.32;100711.97;4956941;28;19922;-59
2022/08/12 10:38:27;;;;;;;;;;;;;;;27.52;37.37;100707.84;4955277;29;19914;-58
2022/08/12 10:44:15;;;;;;;;;;;;;;;27.63;37.25;100696.44;4992344;28;19989;-57
2022/08/12 10:47:00;;;;;;;;;;;;;;;27.70;37.41;100695.50;4954953;28;19918;-57
2022/08/12 10:49:45;;;;;;;;;;;;;;;27.76;36.96;100688.19;4976450;28;20281;-58
2022/08/12 10:52:30;;;;;;;;;;;;;;;27.89;36.55;100691.84;4973963;28;20278;-58
2022/08/12 10:55:14;;;;;;;;;;;;;;;27.95;36.90;100690.13;4973638;28;19918;-58
2022/08/12 10:58:00;;;;;;;;;;;;;;;28.00;37.17;100686.81;4973456;28;19914;-58
2022/08/12 11:00:44;;;;;;;;;;;;;;;28.01;38.23;100678.00;4963255;28;19914;-58
2022/08/12 11:03:33;;;;;;;;;;;;;;;28.14;37.63;100680.16;4971930;28;20317;-58
2022/08/12 11:06:20;;;;;;;;;;;;;;;28.22;36.23;100676.72;4976869;28;20375;-58
2022/08/12 11:09:04;;;;;;;;;;;;;;;28.24;37.49;100679.09;4976513;28;19922;-58
2022/08/12 11:11:49;;;;;;;;;;;;;;;28.31;37.22;100674.09;4987599;28;19913;-58
2022/08/12 11:14:35;;;;;;;;;;;;;;;28.35;37.03;100674.78;4998199;28;19914;-58
2022/08/12 11:17:20;;;;;;;;;;;;;;;28.43;36.47;100672.63;4993382;28;19918;-58
2022/08/12 11:20:05;;;;;;;;;;;;;;;28.46;36.11;100666.94;4993415;28;20281;-58
2022/08/12 11:22:57;;;;;;;;;;;;;;;28.47;36.38;100662.13;4993417;28;19914;-58
2022/08/12 11:25:42;;;;;;;;;;;;;;;28.53;38.05;100663.16;4993047;28;19918;-58
2022/08/12 11:28:27;;;;;;;;;;;;;;;28.63;35.74;100664.91;4972332;28;20285;-58
2022/08/12 11:31:11;;;;;;;;;;;;;;;28.71;36.52;100674.66;4972993;28;19918;-58
2022/08/12 11:33:56;;;;;;;;;;;;;;;28.69;37.01;100665.94;4974037;28;19914;-58
2022/08/12 11:36:49;;;;;;;;;;;;;;;28.69;38.22;100659.56;4970796;28;19922;-58
2022/08/12 11:39:33;;;;;;;;;;;;;;;28.74;35.13;100662.63;4969605;28;20369;-58
2022/08/12 11:42:18;;;;;;;;;;;;;;;28.84;34.72;100658.75;4972925;28;19914;-58
2022/08/12 11:45:03;;;;;;;;;;;;;;;28.88;35.99;100645.44;4973909;28;19914;-58
2022/08/12 11:47:48;;;;;;;;;;;;;;;28.91;35.51;100655.75;4968226;28;19918;-58
2022/08/12 11:50:33;;;;;;;;;;;;;;;28.88;37.81;100661.44;4963432;28;19914;-58
2022/08/12 11:53:17;;;;;;;;;;;;;;;28.85;36.52;100659.56;4960847;28;19914;-62
2022/08/12 11:56:04;;;;;;;;;;;;;;;28.85;33.96;100649.09;4972267;28;19918;-57
2022/08/12 11:58:48;;;;;;;;;;;;;;;28.99;34.11;100652.75;4973644;28;20302;-58
2022/08/12 12:01:33;;;;;;;;;;;;;;;29.02;35.43;100654.66;4968126;28;20511;-58
2022/08/12 12:04:18;;;;;;;;;;;;;;;28.99;34.79;100645.16;4977462;28;20370;-60
2022/08/12 12:07:03;;;;;;;;;;;;;;;28.82;34.73;100629.63;4967328;28;19914;-57
2022/08/12 12:09:48;;;;;;;;;;;;;;;28.62;34.49;100643.72;4966297;28;19914;-57
2022/08/12 12:12:32;;;;;;;;;;;;;;;28.66;35.07;100638.81;4959960;28;19936;-57
2022/08/12 12:15:17;;;;;;;;;;;;;;;28.62;34.55;100634.53;4956936;28;19914;-57
2022/08/12 12:18:02;;;;;;;;;;;;;;;28.69;34.46;100637.94;4964193;28;19913;-57
2022/08/12 12:20:47;;;;;;;;;;;;;;;28.69;33.91;100632.34;4960640;28;19918;-57
2022/08/12 12:23:33;;;;;;;;;;;;;;;28.75;34.63;100629.84;4960818;28;19914;-57
2022/08/12 12:26:18;;;;;;;;;;;;;;;28.82;35.64;100619.22;4968343;28;20293;-57
2022/08/12 12:29:03;;;;;;;;;;;;;;;28.72;34.18;100613.91;4962177;28;19919;-57
2022/08/12 12:31:48;;;;;;;;;;;;;;;28.79;35.15;100613.72;4958184;28;19914;-57
2022/08/12 12:34:32;;;;;;;;;;;;;;;29.06;33.28;100616.91;4966899;28;19913;-57
2022/08/12 12:37:17;;;;;;;;;;;;;;;29.06;33.10;100611.31;4972297;28;20403;-57
2022/08/12 12:40:01;;;;;;;;;;;;;;;29.05;33.33;100603.38;4972322;28;19917;-57
2022/08/12 12:42:46;;;;;;;;;;;;;;;29.22;33.09;100608.44;4972025;28;19914;-57
2022/08/12 12:45:31;;;;;;;;;;;;;;;28.98;33.92;100597.97;5016897;23;19925;-80
2022/08/12 12:48:17;;;;;;;;;;;;;;;29.24;33.08;100594.00;4998112;28;19917;-79
2022/08/12 12:53:54;;;;;;;;;;;;;;;29.43;32.09;100586.66;4986615;28;19922;-58
2022/08/12 12:56:41;;;;;;;;;;;;;;;29.23;32.49;100586.81;4979915;28;19917;-58
2022/08/12 12:59:27;;;;;;;;;;;;;;;29.22;33.88;100579.66;4980539;28;19922;-58
2022/08/12 13:02:12;;;;;;;;;;;;;;;29.07;33.08;100576.50;4984363;28;19914;-58
2022/08/12 13:04:58;;;;;;;;;;;;;;;28.94;33.17;100581.28;4972601;28;19914;-58
2022/08/12 13:07:43;;;;;;;;;;;;;;;29.02;33.42;100584.66;4981408;28;19914;-58
2022/08/12 13:10:29;;;;;;;;;;;;;;;29.24;32.38;100588.41;4972202;28;20365;-58
2022/08/12 13:13:17;;;;;;;;;;;;;;;29.10;33.57;100578.41;4982739;28;19914;-58
2022/08/12 13:16:03;;;;;;;;;;;;;;;29.20;32.74;100570.94;4991938;28;19918;-57
2022/08/12 13:18:48;;;;;;;;;;;;;;;29.22;32.86;100576.84;4998343;28;19913;-57
2022/08/12 13:21:33;;;;;;;;;;;;;;;29.22;32.92;100579.66;4977326;28;19913;-58
2022/08/12 13:24:17;;;;;;;;;;;;;;;29.17;32.63;100574.59;4982243;28;19913;-58
2022/08/12 13:27:02;;;;;;;;;;;;;;;29.35;31.61;100580.50;4979052;28;19914;-58
2022/08/12 13:29:46;;;;;;;;;;;;;;;29.40;32.10;100573.53;4985577;28;20296;-58
2022/08/12 13:32:30;;;;;;;;;;;;;;;29.25;31.33;100562.75;4964832;28;19917;-58
2022/08/12 13:35:15;;;;;;;;;;;;;;;29.21;33.20;100553.66;4995095;28;19913;-58
2022/08/12 13:38:00;;;;;;;;;;;;;;;29.10;33.87;100555.22;4993443;28;19918;-58
2022/08/12 13:40:45;;;;;;;;;;;;;;;29.11;33.00;100548.38;4995136;28;19965;-58
2022/08/12 13:43:30;;;;;;;;;;;;;;;29.04;32.57;100548.59;4981470;28;20273;-58
2022/08/12 13:46:15;;;;;;;;;;;;;;;29.03;32.20;100549.81;4995131;28;19914;-58
2022/08/12 13:49:02;;;;;;;;;;;;;;;28.89;32.56;100546.22;4989080;28;19914;-58
2022/08/12 13:51:51;;;;;;;;;;;;;;;28.95;32.41;100543.66;4980030;28;19914;-58
2022/08/12 13:54:36;;;;;;;;;;;;;;;28.88;32.12;100547.44;4981048;28;20369;-58
2022/08/12 13:57:21;;;;;;;;;;;;;;;28.89;33.01;100557.44;4980741;28;19922;-58
2022/08/12 14:00:07;;;;;;;;;;;;;;;28.74;33.71;100552.69;4992576;28;19914;-59
2022/08/12 14:02:56;;;;;;;;;;;;;;;28.82;31.83;100554.81;4975517;28;19914;-58
2022/08/12 14:05:41;;;;;;;;;;;;;;;28.78;32.12;100548.53;4975179;28;19914;-58
2022/08/12 14:08:27;;;;;;;;;;;;;;;28.65;33.99;100558.88;4972487;28;19914;-59
2022/08/12 14:11:11;;;;;;;;;;;;;;;28.72;32.87;100552.31;4975144;28;19914;-57
2022/08/12 14:13:59;;;;;;;;;;;;;;;28.72;33.06;100546.72;4975399;28;19914;-59
2022/08/12 14:16:44;;;;;;;;;;;;;;;28.77;32.14;100546.19;4966064;28;19917;-59
2022/08/12 14:19:28;;;;;;;;;;;;;;;28.68;32.42;100535.63;4979888;28;20385;-58
2022/08/12 14:22:13;;;;;;;;;;;;;;;28.62;33.52;100528.19;4975055;28;19914;-57
2022/08/12 14:24:58;;;;;;;;;;;;;;;28.54;33.59;100524.03;4975053;28;20014;-58
2022/08/12 14:27:43;;;;;;;;;;;;;;;28.53;33.69;100517.66;4974998;28;19926;-58
2022/08/12 14:30:27;;;;;;;;;;;;;;;28.53;33.15;100517.66;4975027;28;19918;-58
2022/08/12 14:33:14;;;;;;;;;;;;;;;28.66;31.28;100515.66;4974039;28;19914;-58
2022/08/12 14:35:59;;;;;;;;;;;;;;;28.65;32.71;100513.34;4982611;28;19917;-58
2022/08/12 14:38:44;;;;;;;;;;;;;;;28.64;33.04;100517.34;4981121;28;19913;-58
2022/08/12 14:41:29;;;;;;;;;;;;;;;28.59;32.36;100507.50;4988027;28;19914;-58
2022/08/12 14:44:14;;;;;;;;;;;;;;;28.53;31.48;100514.06;4979465;28;19914;-58
2022/08/12 14:46:59;;;;;;;;;;;;;;;28.54;31.35;100516.44;4978320;28;19914;-58
2022/08/12 14:49:44;;;;;;;;;;;;;;;28.47;30.80;100519.41;4974006;28;19913;-59
2022/08/12 14:52:29;;;;;;;;;;;;;;;28.46;31.69;100521.44;4974220;28;19914;-58
2022/08/12 14:55:14;;;;;;;;;;;;;;;28.53;31.85;100517.66;4974209;28;19914;-58
2022/08/12 14:57:59;;;;;;;;;;;;;;;28.49;30.99;100514.19;4980744;28;19918;-59
2022/08/12 15:03:48;;;;;;;;;;;;;;;28.65;32.25;100508.50;4982927;28;19921;-58
2022/08/12 15:06:33;;;;;;;;;;;;;;;28.71;30.99;100509.53;4974367;28;20281;-58
2022/08/12 15:09:17;;;;;;;;;;;;;;;28.69;32.95;100506.41;4978947;28;19913;-58
2022/08/12 15:12:02;;;;;;;;;;;;;;;28.75;31.89;100503.88;4993413;28;19914;-58
2022/08/12 15:14:47;;;;;;;;;;;;;;;28.62;32.86;100509.41;4966657;28;19930;-59
2022/08/12 15:17:34;;;;;;;;;;;;;;;28.66;32.13;100507.28;4966088;28;20289;-58
2022/08/12 15:20:19;;;;;;;;;;;;;;;28.70;32.54;100505.16;4977686;28;20293;-59
2022/08/12 15:23:05;;;;;;;;;;;;;;;28.73;33.02;100503.53;4964843;28;19914;-59
2022/08/12 15:25:50;;;;;;;;;;;;;;;28.63;32.86;100499.78;4980464;28;19914;-59
2022/08/12 15:28:43;;;;;;;;;;;;;;;28.55;32.90;100498.41;4977008;28;19913;-58
2022/08/12 15:31:27;;;;;;;;;;;;;;;28.40;32.10;100497.22;4983233;28;19917;-58
2022/08/12 15:34:12;;;;;;;;;;;;;;;28.38;31.61;100494.09;4983465;28;19914;-59
2022/08/12 15:36:56;;;;;;;;;;;;;;;28.48;31.23;100493.81;4981352;28;20358;-58
2022/08/12 15:39:41;;;;;;;;;;;;;;;28.48;31.03;100502.19;4978239;28;20320;-58
2022/08/12 15:42:25;;;;;;;;;;;;;;;28.47;31.54;100508.22;4973685;28;19922;-58
2022/08/12 15:45:10;;;;;;;;;;;;;;;28.43;31.35;100507.56;4959512;28;20091;-58
2022/08/12 15:47:55;;;;;;;;;;;;;;;28.36;31.33;100510.53;4992739;28;19913;-59
2022/08/12 15:50:42;;;;;;;;;;;;;;;28.16;32.64;100507.09;4970181;28;20289;-59
2022/08/12 15:56:30;;;;;;;;;;;;;;;28.12;32.52;100504.41;4980361;28;19918;-60
2022/08/12 15:59:15;;;;;;;;;;;;;;;28.08;32.93;100510.06;4975638;28;19914;-58
2022/08/12 16:01:59;;;;;;;;;;;;;;;27.93;33.78;100528.44;4984862;28;19914;-58
2022/08/12 16:04:49;;;;;;;;;;;;;;;27.76;35.65;100534.47;4983829;28;19914;-58
2022/08/12 16:07:33;;;;;;;;;;;;;;;27.54;38.32;100542.56;4978715;28;19913;-58
2022/08/12 16:10:17;;;;;;;;;;;;;;;27.31;38.51;100560.25;4986968;28;19914;-58
2022/08/12 16:13:11;;;;;;;;;;;;;;;27.21;38.37;100567.63;4992719;28;19914;-59
2022/08/12 16:15:55;;;;;;;;;;;;;;;27.19;38.55;100564.47;4967990;28;19913;-58
2022/08/12 16:18:39;;;;;;;;;;;;;;;27.14;38.55;100570.56;4981623;28;19918;-58
2022/08/12 16:21:24;;;;;;;;;;;;;;;27.07;38.94;100570.72;4975568;28;20373;-59
2022/08/12 16:24:09;;;;;;;;;;;;;;;27.00;39.31;100570.88;4975622;28;20302;-59
2022/08/12 16:26:54;;;;;;;;;;;;;;;26.89;40.01;100578.69;4985609;28;19913;-58
2022/08/12 16:29:39;;;;;;;;;;;;;;;26.81;40.40;100578.03;4964135;28;19914;-59
2022/08/12 16:32:24;;;;;;;;;;;;;;;26.79;41.15;100572.06;4997934;28;20300;-59
2022/08/12 16:35:09;;;;;;;;;;;;;;;26.75;41.68;100557.41;4983738;28;19914;-59
2022/08/12 17:08:20;;;;;;;;;;;;;;;26.76;46.89;100773.84;4981881;28;19922;-61
2022/08/12 17:11:06;;;;;;;;;;;;;;;26.88;47.51;100763.31;4980727;28;19914;-61
2022/08/12 17:25:12;;;;;;;;;;;;;;;27.17;46.87;100726.06;4976169;28;20126;-61
2022/08/12 17:27:58;;;;;;;;;;;;;;;27.21;46.47;100721.22;4960478;28;19914;-61
2022/08/12 17:30:43;;;;;;;;;;;;;;;27.23;46.32;100702.00;4983099;28;19913;-61
2022/08/12 17:33:28;;;;;;;;;;;;;;;27.29;46.38;100679.16;4975197;28;19914;-61
2022/08/12 17:36:13;;;;;;;;;;;;;;;27.30;46.03;100662.00;4979713;28;19914;-61
2022/08/12 17:38:58;;;;;;;;;;;;;;;27.30;45.84;100642.44;4984767;28;19913;-60
2022/08/12 17:41:42;;;;;;;;;;;;;;;27.32;45.46;100650.41;4969097;28;19914;-60
2022/08/12 17:44:26;;;;;;;;;;;;;;;27.33;45.66;100663.16;4975739;28;19914;-60
2022/08/12 17:47:15;;;;;;;;;;;;;;;27.31;46.11;100673.94;4975959;28;19918;-59
2022/08/12 17:50:00;;;;;;;;;;;;;;;27.35;46.64;100664.28;4975730;28;19914;-60
2022/08/12 17:52:45;;;;;;;;;;;;;;;27.37;47.32;100663.84;4977717;28;19914;-61
2022/08/12 17:55:31;;;;;;;;;;;;;;;27.34;47.27;100670.28;4982018;28;19914;-60
2022/08/12 17:58:17;;;;;;;;;;;;;;;27.32;47.71;100681.91;4975486;28;19918;-61
2022/08/12 18:01:02;;;;;;;;;;;;;;;27.32;47.57;100672.75;4977242;28;19918;-61
2022/08/12 18:03:48;;;;;;;;;;;;;;;27.30;47.72;100650.81;4975591;28;19914;-61
2022/08/12 18:06:33;;;;;;;;;;;;;;;27.31;47.43;100654.41;4980746;28;19914;-61
2022/08/12 18:09:19;;;;;;;;;;;;;;;27.32;47.36;100655.97;4975436;28;19926;-60
2022/08/12 18:15:09;;;;;;;;;;;;;;;27.27;47.67;100713.13;4994634;28;19914;-61
2022/08/12 18:17:54;;;;;;;;;;;;;;;27.28;47.80;100708.34;4986448;28;19918;-60
2022/08/12 18:20:39;;;;;;;;;;;;;;;27.27;47.89;100696.38;4975030;28;20389;-61
2022/08/12 18:23:25;;;;;;;;;;;;;;;27.27;47.54;100678.84;4981581;28;19914;-61
2022/08/12 18:26:22;;;;;;;;;;;;;;;27.27;47.82;100681.63;4981522;28;19914;-61
2022/08/12 18:29:09;;;;;;;;;;;;;;;27.26;47.64;100668.88;4981723;28;19914;-60
2022/08/12 18:31:54;;;;;;;;;;;;;;;27.26;47.71;100669.66;4994320;28;19918;-60
2022/08/12 18:34:39;;;;;;;;;;;;;;;27.26;47.71;100686.41;5000950;28;20296;-61
2022/08/12 18:37:27;;;;;;;;;;;;;;;27.27;47.46;100704.75;4983661;28;20293;-60
2022/08/12 18:43:15;;;;;;;;;;;;;;;27.27;47.53;100692.78;4976722;28;19914;-61
2022/08/12 18:46:07;;;;;;;;;;;;;;;27.24;47.46;100688.84;5016778;23;19922;-80
2022/08/12 18:48:55;;;;;;;;;;;;;;;27.26;46.75;100705.19;5031134;28;19921;-83
2022/08/12 18:51:40;;;;;;;;;;;;;;;27.32;46.34;100731.41;5033327;28;20370;-81
2022/08/12 18:54:26;;;;;;;;;;;;;;;27.37;46.25;100733.69;5044854;28;19912;-82
2022/08/12 18:57:12;;;;;;;;;;;;;;;27.37;46.34;100750.44;5000426;28;19918;-82
2022/08/12 19:00:00;;;;;;;;;;;;;;;27.34;46.46;100773.63;5003490;28;19921;-83
2022/08/12 19:02:45;;;;;;;;;;;;;;;27.34;47.06;100751.28;5002676;28;19914;-82
2022/08/12 19:05:31;;;;;;;;;;;;;;;27.26;47.20;100745.06;5023590;28;19913;-85
2022/08/12 19:08:16;;;;;;;;;;;;;;;27.24;47.23;100739.09;5021885;28;19913;-84
2022/08/12 19:14:25;;;;;;;;;;;;;;;27.23;47.07;100751.50;5012160;28;20390;-83
2022/08/12 19:14:25;;;;;;;;;;;;;;;27.26;47.39;100777.78;4998740;28;19914;-86
2022/08/12 19:17:12;;;;;;;;;;;;;;;27.28;47.47;100795.69;5022817;28;19918;-86
2022/08/12 19:20:01;;;;;;;;;;;;;;;27.28;47.30;100804.06;5023602;28;19913;-85
2022/08/12 19:22:47;;;;;;;;;;;;;;;27.28;47.05;100792.13;5017197;28;19914;-85
2022/08/12 19:25:33;;;;;;;;;;;;;;;27.21;47.51;100776.28;5025552;28;19917;-85
2022/08/12 19:28:18;;;;;;;;;;;;;;;27.17;47.33;100767.19;5025285;28;20321;-86
2022/08/12 19:34:22;;;;;;;;;;;;;;;27.16;47.46;100749.63;5019030;28;19913;-84
2022/08/12 19:37:07;;;;;;;;;;;;;;;27.14;47.28;100754.06;5005531;28;19917;-85
2022/08/12 19:39:53;;;;;;;;;;;;;;;27.12;47.32;100768.44;5023117;28;20378;-85
2022/08/12 19:42:40;;;;;;;;;;;;;;;27.14;47.28;100777.19;5018558;28;19913;-85
2022/08/12 19:45:26;;;;;;;;;;;;;;;27.18;47.62;100805.03;5007990;28;19913;-84
2022/08/12 19:48:11;;;;;;;;;;;;;;;27.20;47.75;100830.53;5010236;28;19917;-83
2022/08/12 19:50:56;;;;;;;;;;;;;;;27.21;47.62;100830.13;5013304;28;19913;-84
2022/08/12 19:53:42;;;;;;;;;;;;;;;27.21;47.55;100826.53;5023059;28;19913;-83
2022/08/12 19:56:27;;;;;;;;;;;;;;;27.20;47.91;100831.34;4994119;28;19917;-83
2022/08/12 20:02:18;;;;;;;;;;;;;;;27.18;48.02;100833.75;5021681;28;19913;-83
2022/08/12 20:05:04;;;;;;;;;;;;;;;27.18;47.66;100822.59;5009653;28;19921;-83
2022/08/12 20:07:49;;;;;;;;;;;;;;;27.21;47.92;100826.53;5005560;28;19913;-84
2022/08/12 20:10:35;;;;;;;;;;;;;;;27.21;48.02;100826.53;5005958;28;19913;-84
2022/08/12 20:13:19;;;;;;;;;;;;;;;27.21;48.23;100821.75;5022564;28;19914;-84
2022/08/12 20:16:05;;;;;;;;;;;;;;;27.21;48.33;100812.59;5001737;28;19913;-83
2022/08/12 20:18:49;;;;;;;;;;;;;;;27.15;48.94;100806.69;5008283;28;19917;-85
2022/08/12 20:21:38;;;;;;;;;;;;;;;27.10;49.53;100792.44;5012891;28;19914;-83
2022/08/12 20:24:24;;;;;;;;;;;;;;;27.06;49.51;100784.13;5012699;28;19917;-85
2022/08/12 20:27:10;;;;;;;;;;;;;;;27.04;49.52;100806.09;5013857;28;19914;-87
2022/08/12 20:29:55;;;;;;;;;;;;;;;27.01;49.93;100815.31;5011336;28;19914;-86
2022/08/12 20:32:54;;;;;;;;;;;;;;;26.95;49.78;100824.59;5020292;28;19913;-85
2022/08/12 20:35:38;;;;;;;;;;;;;;;26.89;50.13;100835.47;5001856;28;19913;-85
2022/08/12 20:38:23;;;;;;;;;;;;;;;26.87;50.07;100823.91;5015834;28;19917;-86
2022/08/12 20:41:08;;;;;;;;;;;;;;;26.85;49.90;100811.59;5012630;28;19921;-86
2022/08/12 20:43:53;;;;;;;;;;;;;;;26.86;49.64;100821.53;5016292;28;19918;-85
2022/08/12 20:46:38;;;;;;;;;;;;;;;26.82;49.89;100822.38;5012021;28;19913;-85
2022/08/12 20:49:23;;;;;;;;;;;;;;;26.81;49.75;100814.44;5000852;28;20393;-85
2022/08/12 20:52:09;;;;;;;;;;;;;;;26.79;49.91;100826.03;5017220;28;19921;-85
2022/08/12 20:54:54;;;;;;;;;;;;;;;26.79;50.08;100819.66;5013103;28;20289;-86
2022/08/12 20:57:39;;;;;;;;;;;;;;;26.78;50.18;100821.66;5009672;28;20379;-87
2022/08/12 21:00:25;;;;;;;;;;;;;;;26.78;50.03;100818.06;5008021;28;20294;-89
2022/08/12 21:09:17;;;;;;;;;;;;;;;26.76;50.32;100807.34;5002033;28;19913;-87
2022/08/12 21:12:03;;;;;;;;;;;;;;;26.75;50.18;100811.34;5001933;28;19913;-88
2022/08/12 21:14:58;;;;;;;;;;;;;;;26.77;50.17;100808.09;4987371;28;19914;-86
2022/08/12 21:17:43;;;;;;;;;;;;;;;26.75;50.09;100810.53;5000415;28;19921;-87
2022/08/12 21:20:27;;;;;;;;;;;;;;;26.75;49.88;100813.34;4999448;28;19918;-86
2022/08/12 21:23:12;;;;;;;;;;;;;;;26.74;50.05;100803.38;4999200;28;19914;-87
2022/08/12 21:25:57;;;;;;;;;;;;;;;26.73;50.16;100810.16;4985635;28;19913;-87
2022/08/12 21:28:43;;;;;;;;;;;;;;;26.73;49.78;100796.22;4999577;28;19914;-85
2022/08/12 21:31:27;;;;;;;;;;;;;;;26.74;50.23;100804.19;4986858;28;19913;-85
2022/08/12 21:34:13;;;;;;;;;;;;;;;26.71;49.88;100798.66;4986542;28;19913;-88
2022/08/12 21:37:01;;;;;;;;;;;;;;;26.70;50.44;100789.50;4988662;28;19914;-87
2022/08/12 21:39:45;;;;;;;;;;;;;;;26.71;50.08;100781.91;4999613;28;19922;-87
2022/08/12 21:42:30;;;;;;;;;;;;;;;26.71;50.10;100776.34;5020700;28;19913;-88
2022/08/12 21:45:15;;;;;;;;;;;;;;;26.69;50.48;100773.16;5024110;28;19913;-89
2022/08/12 21:47:59;;;;;;;;;;;;;;;26.68;50.37;100771.59;5014206;28;19921;-87
2022/08/12 21:50:44;;;;;;;;;;;;;;;26.67;50.46;100761.63;5021916;28;20382;-87
2022/08/12 21:53:28;;;;;;;;;;;;;;;26.67;50.55;100764.44;5014289;28;19913;-88
2022/08/12 21:56:13;;;;;;;;;;;;;;;26.66;50.31;100765.66;5022086;28;19925;-88
2022/08/12 21:58:57;;;;;;;;;;;;;;;26.64;50.49;100754.13;5021738;28;19917;-85
2022/08/12 22:01:42;;;;;;;;;;;;;;;26.62;50.48;100751.75;5025938;28;19914;-86
2022/08/12 22:07:30;;;;;;;;;;;;;;;26.60;50.66;100754.19;5007430;28;19913;-86
2022/08/12 22:10:16;;;;;;;;;;;;;;;26.60;50.47;100761.78;5021672;28;19914;-86
2022/08/12 22:13:00;;;;;;;;;;;;;;;26.58;50.50;100773.34;5009472;28;19913;-86